createdAt,value
2017-08-15T00:00:52.414Z,8.90
2017-08-15T00:03:20.068Z,7.83
2017-08-15T00:05:47.796Z,7.50
2017-08-15T00:08:15.441Z,8.10
2017-08-15T00:10:43.153Z,10.13
2017-08-15T00:13:10.783Z,7.80
2017-08-15T00:15:38.490Z,10.07
2017-08-15T00:18:06.613Z,13.70
2017-08-15T00:20:34.260Z,8.30
2017-08-15T00:23:01.890Z,8.30
2017-08-15T00:25:29.593Z,8.47
2017-08-15T00:27:57.292Z,11.20
2017-08-15T00:30:25.778Z,6.97
2017-08-15T00:32:54.196Z,9.20
2017-08-15T00:35:21.832Z,13.20
2017-08-15T00:37:49.504Z,14.03
2017-08-15T00:40:17.232Z,10.20
2017-08-15T00:42:45.703Z,11.70
2017-08-15T00:45:13.377Z,8.53
2017-08-15T00:47:41.132Z,8.80
2017-08-15T00:50:08.844Z,8.57
2017-08-15T00:52:36.519Z,11.13
2017-08-15T00:55:04.200Z,9.27
2017-08-15T00:57:31.877Z,11.13
2017-08-15T00:59:59.540Z,8.97
2017-08-15T01:02:27.243Z,11.83
2017-08-15T01:04:55.672Z,9.07
2017-08-15T01:07:23.327Z,11.80
2017-08-15T01:09:51.000Z,7.47
2017-08-15T01:12:18.659Z,8.23
2017-08-15T01:14:46.309Z,8.27
2017-08-15T01:17:14.111Z,10.47
2017-08-15T01:19:41.909Z,9.60
2017-08-15T01:22:09.698Z,11.13
2017-08-15T01:24:37.347Z,7.90
2017-08-15T01:27:05.306Z,8.83
2017-08-15T01:29:32.947Z,7.90
2017-08-15T01:32:01.412Z,8.87
2017-08-15T01:34:29.047Z,8.13
2017-08-15T01:36:56.701Z,9.40
2017-08-15T01:39:24.437Z,8.83
2017-08-15T01:41:52.838Z,8.70
2017-08-15T01:44:20.561Z,9.60
2017-08-15T01:46:48.276Z,10.53
2017-08-15T01:49:15.954Z,9.00
2017-08-15T01:51:43.644Z,10.30
2017-08-15T01:54:11.325Z,9.37
2017-08-15T01:56:39.015Z,8.97
2017-08-15T01:59:06.716Z,11.03
2017-08-15T02:01:35.318Z,12.60
2017-08-15T02:04:03.086Z,9.00
2017-08-15T02:06:30.737Z,11.20
2017-08-15T02:08:58.382Z,8.67
2017-08-15T02:11:26.089Z,10.10
2017-08-15T02:13:53.720Z,9.20
2017-08-15T02:16:21.389Z,9.97
2017-08-15T02:18:52.647Z,10.70
2017-08-15T02:21:20.337Z,9.93
2017-08-15T02:23:48.078Z,9.13
2017-08-15T02:26:15.719Z,9.53
2017-08-15T02:28:43.356Z,11.80
2017-08-15T02:31:11.019Z,9.07
2017-08-15T02:33:38.665Z,10.67
2017-08-15T02:36:06.463Z,13.23
2017-08-15T02:38:34.124Z,10.07
2017-08-15T02:41:02.235Z,11.17
2017-08-15T02:43:29.891Z,9.50
2017-08-15T02:45:57.524Z,11.83
2017-08-15T02:48:25.217Z,10.70
2017-08-15T02:50:52.892Z,10.33
2017-08-15T02:53:20.558Z,10.17
2017-08-15T02:55:48.222Z,11.40
2017-08-15T02:58:16.248Z,9.23
2017-08-15T03:00:44.329Z,12.10
2017-08-15T03:03:12.462Z,10.07
2017-08-15T03:05:40.129Z,11.23
2017-08-15T03:08:07.796Z,12.20
2017-08-15T03:10:35.467Z,12.70
2017-08-15T03:13:03.176Z,14.03
2017-08-15T03:15:32.633Z,11.10
2017-08-15T03:18:00.332Z,12.57
2017-08-15T03:20:29.110Z,10.60
2017-08-15T03:22:56.861Z,10.90
2017-08-15T03:25:24.509Z,10.73
2017-08-15T03:27:52.162Z,11.80
2017-08-15T03:30:19.917Z,12.83
2017-08-15T03:32:48.396Z,15.33
2017-08-15T03:35:16.850Z,11.47
2017-08-15T03:37:44.508Z,11.70
2017-08-15T03:40:12.315Z,10.97
2017-08-15T03:42:39.994Z,12.60
2017-08-15T03:45:07.659Z,12.10
2017-08-15T03:47:35.303Z,11.40
2017-08-15T03:50:02.968Z,13.97
2017-08-15T03:52:30.655Z,12.83
2017-08-15T03:54:58.663Z,13.40
2017-08-15T03:57:26.317Z,11.63
2017-08-15T03:59:53.995Z,10.63
2017-08-15T04:02:22.144Z,11.80
2017-08-15T04:04:49.821Z,12.77
2017-08-15T04:07:17.503Z,14.00
2017-08-15T04:09:46.446Z,16.40
2017-08-15T04:12:14.119Z,13.70
2017-08-15T04:14:41.764Z,12.87
2017-08-15T04:17:09.487Z,13.80
2017-08-15T04:19:37.166Z,12.63
2017-08-15T04:22:04.794Z,11.97
2017-08-15T04:24:32.475Z,15.10
2017-08-15T04:27:00.184Z,12.90
2017-08-15T04:29:27.824Z,14.90
2017-08-15T04:31:55.462Z,12.63
2017-08-15T04:34:23.109Z,12.60
2017-08-15T04:36:50.813Z,12.93
2017-08-15T04:39:18.540Z,11.83
2017-08-15T04:44:18.169Z,15.30
2017-08-15T04:46:45.880Z,20.27
2017-08-15T04:49:13.568Z,14.33
2017-08-15T04:51:41.218Z,11.73
2017-08-15T04:54:09.010Z,12.40
2017-08-15T04:56:36.701Z,13.63
2017-08-15T04:59:05.161Z,13.00
2017-08-15T05:01:32.805Z,12.83
2017-08-15T05:04:00.440Z,12.57
2017-08-15T05:06:28.100Z,14.27
2017-08-15T05:08:55.756Z,12.63
2017-08-15T05:11:23.533Z,12.43
2017-08-15T05:13:51.229Z,12.50
2017-08-15T05:16:18.920Z,11.50
2017-08-15T05:18:46.560Z,12.50
2017-08-15T05:21:14.259Z,11.83
2017-08-15T05:23:41.914Z,10.00
2017-08-15T05:26:09.544Z,11.33
2017-08-15T05:28:37.244Z,9.63
2017-08-15T05:31:04.920Z,10.40
2017-08-15T05:33:33.591Z,10.23
2017-08-15T05:36:01.256Z,9.97
2017-08-15T05:38:28.882Z,9.90
2017-08-15T05:40:56.545Z,11.63
2017-08-15T05:43:24.525Z,15.07
2017-08-15T05:45:52.209Z,12.00
2017-08-15T05:48:20.702Z,12.30
2017-08-15T05:50:48.481Z,13.87
2017-08-15T05:53:16.264Z,10.77
2017-08-15T05:55:43.919Z,13.10
2017-08-15T05:58:11.585Z,14.13
2017-08-15T06:00:39.328Z,16.37
2017-08-15T06:03:07.120Z,16.40
2017-08-15T06:05:35.011Z,16.43
2017-08-15T06:08:02.719Z,12.37
2017-08-15T06:10:30.509Z,16.60
2017-08-15T06:12:58.183Z,12.83
2017-08-15T06:15:25.879Z,13.63
2017-08-15T06:17:53.543Z,12.63
2017-08-15T06:20:21.279Z,13.20
2017-08-15T06:22:49.028Z,13.27
2017-08-15T06:25:16.694Z,11.80
2017-08-15T06:27:55.713Z,13.50
2017-08-15T06:30:23.468Z,13.07
2017-08-15T06:32:52.365Z,12.90
2017-08-15T06:35:20.112Z,14.43
2017-08-15T06:37:59.147Z,11.40
2017-08-15T06:40:33.960Z,14.17
2017-08-15T06:43:01.766Z,12.43
2017-08-15T06:45:29.422Z,14.80
2017-08-15T06:47:57.420Z,12.10
2017-08-15T06:50:25.175Z,12.33
2017-08-15T06:52:53.939Z,15.17
2017-08-15T06:55:21.695Z,12.27
2017-08-15T06:57:49.472Z,19.73
2017-08-15T07:00:18.061Z,13.47
2017-08-15T07:02:45.806Z,11.33
2017-08-15T07:05:13.488Z,16.03
2017-08-15T07:07:41.271Z,10.33
2017-08-15T07:10:09.071Z,11.20
2017-08-15T07:12:36.861Z,11.57
2017-08-15T07:15:06.595Z,12.20
2017-08-15T07:17:35.311Z,11.30
2017-08-15T07:20:02.996Z,15.10
2017-08-15T07:22:31.954Z,11.70
2017-08-15T07:24:59.744Z,11.93
2017-08-15T07:27:28.873Z,10.20
2017-08-15T07:29:57.680Z,10.77
2017-08-15T07:32:25.516Z,10.80
2017-08-15T07:34:56.967Z,11.50
2017-08-15T07:37:30.744Z,13.80
2017-08-15T07:40:00.095Z,9.67
2017-08-15T07:42:31.480Z,9.80
2017-08-15T07:45:01.032Z,9.53
2017-08-15T07:47:28.737Z,8.50
2017-08-15T07:49:56.493Z,10.13
2017-08-15T07:52:24.226Z,8.87
2017-08-15T07:54:51.954Z,10.60
2017-08-15T07:57:23.128Z,10.07
2017-08-15T07:59:50.769Z,9.03
2017-08-15T08:02:18.533Z,10.37
2017-08-15T08:04:46.222Z,10.63
2017-08-15T08:07:13.827Z,9.67
2017-08-15T08:09:41.530Z,9.83
2017-08-15T08:12:09.149Z,11.27
2017-08-15T08:14:36.769Z,12.10
2017-08-15T08:17:04.384Z,10.80
2017-08-15T08:19:32.099Z,10.70
2017-08-15T08:21:59.687Z,9.30
2017-08-15T08:24:28.057Z,11.37
2017-08-15T08:26:55.719Z,9.67
2017-08-15T08:29:23.464Z,9.43
2017-08-15T08:31:51.154Z,7.80
2017-08-15T08:34:18.981Z,8.53
2017-08-15T08:36:46.596Z,7.33
2017-08-15T08:39:14.212Z,8.30
2017-08-15T08:41:41.860Z,7.93
2017-08-15T08:44:09.496Z,8.53
2017-08-15T08:46:37.151Z,9.80
2017-08-15T08:49:04.848Z,8.10
2017-08-15T08:51:32.472Z,10.10
2017-08-15T08:54:00.858Z,8.83
2017-08-15T08:56:28.512Z,7.50
2017-08-15T08:58:56.200Z,11.93
2017-08-15T09:01:23.828Z,6.50
2017-08-15T09:03:51.503Z,7.83
2017-08-15T09:06:19.186Z,10.43
2017-08-15T09:08:46.807Z,8.90
2017-08-15T09:11:14.492Z,10.27
2017-08-15T09:13:42.154Z,9.07
2017-08-15T09:16:09.809Z,9.63
2017-08-15T09:18:37.499Z,12.40
2017-08-15T09:21:05.159Z,9.10
2017-08-15T09:23:33.773Z,11.37
2017-08-15T09:26:01.467Z,8.77
2017-08-15T09:28:29.114Z,9.60
2017-08-15T09:30:56.766Z,7.70
2017-08-15T09:33:24.457Z,10.20
2017-08-15T09:35:52.173Z,9.30
2017-08-15T09:38:21.483Z,9.50
2017-08-15T09:40:49.151Z,7.90
2017-08-15T09:43:16.772Z,9.00
2017-08-15T09:45:44.444Z,8.20
2017-08-15T09:48:12.088Z,10.43
2017-08-15T09:50:39.693Z,7.00
2017-08-15T09:53:07.319Z,7.77
2017-08-15T09:55:34.968Z,9.73
2017-08-15T09:58:08.133Z,9.73
2017-08-15T10:00:35.762Z,8.93
2017-08-15T10:03:03.377Z,8.57
2017-08-15T10:05:31.020Z,9.00
2017-08-15T10:07:58.634Z,6.60
2017-08-15T10:10:26.273Z,12.43
2017-08-15T10:12:54.729Z,6.47
2017-08-15T10:15:22.332Z,6.47
2017-08-15T10:17:49.964Z,5.73
2017-08-15T10:20:17.635Z,6.50
2017-08-15T10:22:45.255Z,6.60
2017-08-15T10:25:12.962Z,5.50
2017-08-15T10:27:40.696Z,5.97
2017-08-15T10:30:08.382Z,8.03
2017-08-15T10:35:11.657Z,7.40
2017-08-15T10:37:39.329Z,8.60
2017-08-15T10:40:06.943Z,7.40
2017-08-15T10:42:34.615Z,6.33
2017-08-15T10:45:02.258Z,6.87
2017-08-15T10:47:29.918Z,7.27
2017-08-15T10:49:57.599Z,5.97
2017-08-15T10:52:25.263Z,7.00
2017-08-15T10:54:52.892Z,7.43
2017-08-15T10:57:20.555Z,7.10
2017-08-15T10:59:48.207Z,7.60
2017-08-15T11:02:15.823Z,6.27
2017-08-15T11:04:43.427Z,7.17
2017-08-15T11:07:11.315Z,6.67
2017-08-15T11:09:38.935Z,7.13
2017-08-15T11:12:06.588Z,7.70
2017-08-15T11:14:34.268Z,7.37
2017-08-15T11:17:01.881Z,8.17
2017-08-15T11:19:29.497Z,5.73
2017-08-15T11:21:57.164Z,7.10
2017-08-15T11:24:24.775Z,7.70
2017-08-15T11:26:52.377Z,6.57
2017-08-15T11:29:20.028Z,6.40
2017-08-15T11:31:47.667Z,9.03
2017-08-15T11:34:15.301Z,6.30
2017-08-15T11:36:42.965Z,6.13
2017-08-15T11:39:10.742Z,5.70
2017-08-15T11:41:38.412Z,7.37
2017-08-15T11:44:06.497Z,7.20
2017-08-15T11:46:34.133Z,6.87
2017-08-15T11:49:02.517Z,7.23
2017-08-15T11:51:30.146Z,5.40
2017-08-15T11:53:57.770Z,4.73
2017-08-15T11:56:25.469Z,4.83
2017-08-15T11:58:53.104Z,4.67
2017-08-15T12:01:20.974Z,5.10
2017-08-15T12:03:48.664Z,5.00
2017-08-15T12:06:16.321Z,4.97
2017-08-15T12:08:43.993Z,4.30
2017-08-15T12:11:11.752Z,4.60
2017-08-15T12:13:39.391Z,3.87
2017-08-15T12:16:07.139Z,8.13
2017-08-15T12:18:34.760Z,4.03
2017-08-15T12:21:02.419Z,8.83
2017-08-15T12:23:30.097Z,7.60
2017-08-15T12:25:57.729Z,4.37
2017-08-15T12:28:25.384Z,4.10
2017-08-15T12:30:53.009Z,4.07
2017-08-15T12:33:20.651Z,4.10
2017-08-15T12:35:48.273Z,4.40
2017-08-15T12:38:15.925Z,4.87
2017-08-15T12:40:43.566Z,5.80
2017-08-15T12:43:11.450Z,6.70
2017-08-15T12:45:39.558Z,3.67
2017-08-15T12:48:07.225Z,3.20
2017-08-15T12:50:34.849Z,4.40
2017-08-15T12:53:02.552Z,3.47
2017-08-15T12:55:30.208Z,4.00
2017-08-15T12:57:57.832Z,4.30
2017-08-15T13:00:25.448Z,3.87
2017-08-15T13:02:53.114Z,4.83
2017-08-15T13:05:21.489Z,4.90
2017-08-15T13:07:49.148Z,4.23
2017-08-15T13:10:16.795Z,4.07
2017-08-15T13:12:44.439Z,4.20
2017-08-15T13:15:12.110Z,3.90
2017-08-15T13:20:13.536Z,3.70
2017-08-15T13:22:41.200Z,4.73
2017-08-15T13:25:08.946Z,3.53
2017-08-15T13:27:36.595Z,3.67
2017-08-15T13:30:04.217Z,3.30
2017-08-15T13:32:31.838Z,3.60
2017-08-15T13:34:59.502Z,3.80
2017-08-15T13:37:27.139Z,3.37
2017-08-15T13:39:54.806Z,3.10
2017-08-15T13:42:22.506Z,3.80
2017-08-15T13:44:50.188Z,3.50
2017-08-15T13:47:17.842Z,4.30
2017-08-15T13:49:45.922Z,3.73
2017-08-15T13:52:13.580Z,6.97
2017-08-15T13:54:41.434Z,4.10
2017-08-15T13:57:09.111Z,4.90
2017-08-15T13:59:36.726Z,5.50
2017-08-15T14:02:05.620Z,4.30
2017-08-15T14:04:33.907Z,3.97
2017-08-15T14:07:01.647Z,3.83
2017-08-15T14:09:29.346Z,3.80
2017-08-15T14:11:57.188Z,4.17
2017-08-15T14:14:24.824Z,3.83
2017-08-15T14:16:52.480Z,3.50
2017-08-15T14:19:20.131Z,3.33
2017-08-15T14:21:47.754Z,3.97
2017-08-15T14:24:15.382Z,5.07
2017-08-15T14:26:43.015Z,3.50
2017-08-15T14:29:10.697Z,3.20
2017-08-15T14:31:38.377Z,2.90
2017-08-15T14:34:05.983Z,8.47
2017-08-15T14:36:33.590Z,3.47
2017-08-15T14:39:01.265Z,3.60
2017-08-15T14:41:28.918Z,3.20
2017-08-15T14:43:56.552Z,2.87
2017-08-15T14:46:24.216Z,3.10
2017-08-15T14:48:51.861Z,3.10
2017-08-15T14:51:19.505Z,3.13
2017-08-15T14:53:48.024Z,3.00
2017-08-15T14:56:15.723Z,4.20
2017-08-15T14:58:43.352Z,4.30
2017-08-15T15:01:11.038Z,3.90
2017-08-15T15:03:38.709Z,3.83
2017-08-15T15:06:06.363Z,4.07
2017-08-15T15:08:33.987Z,4.43
2017-08-15T15:11:01.636Z,3.93
2017-08-15T15:13:29.277Z,3.33
2017-08-15T15:15:56.915Z,4.07
2017-08-15T15:18:24.580Z,4.27
2017-08-15T15:20:52.243Z,3.70
2017-08-15T15:23:20.212Z,4.20
2017-08-15T15:25:47.856Z,4.13
2017-08-15T15:28:15.530Z,4.47
2017-08-15T15:30:43.200Z,4.00
2017-08-15T15:33:11.027Z,4.30
2017-08-15T15:35:38.701Z,3.20
2017-08-15T15:38:06.335Z,4.27
2017-08-15T15:40:34.790Z,3.93
2017-08-15T15:43:02.437Z,3.50
2017-08-15T15:45:30.969Z,4.87
2017-08-15T15:47:59.557Z,3.80
2017-08-15T15:50:27.242Z,4.30
2017-08-15T15:52:55.900Z,3.63
2017-08-15T15:55:23.545Z,3.87
2017-08-15T15:57:51.199Z,4.10
2017-08-15T16:00:18.845Z,4.90
2017-08-15T16:02:46.447Z,5.70
2017-08-15T16:05:14.095Z,3.33
2017-08-15T16:07:42.467Z,3.63
2017-08-15T16:10:10.133Z,4.27
2017-08-15T16:12:37.740Z,7.83
2017-08-15T16:15:05.353Z,6.07
2017-08-15T16:17:33.018Z,3.60
2017-08-15T16:20:01.403Z,4.80
2017-08-15T16:22:29.052Z,4.33
2017-08-15T16:24:56.671Z,3.50
2017-08-15T18:03:36.459Z,4.70
2017-08-15T20:13:26.272Z,5.30
2017-08-15T20:15:58.651Z,5.33
2017-08-15T20:39:12.597Z,5.57
2017-08-15T20:41:47.897Z,8.67
2017-08-15T20:44:22.599Z,5.77
2017-08-15T20:46:55.522Z,8.33
2017-08-15T20:49:33.073Z,8.83
2017-08-15T20:52:08.649Z,6.13
2017-08-15T21:03:28.148Z,4.50
2017-08-15T21:06:03.705Z,5.20
2017-08-15T21:08:31.538Z,12.23
2017-08-15T21:17:03.497Z,4.53
2017-08-15T21:22:38.190Z,5.20
2017-08-15T21:25:05.976Z,5.80
2017-08-15T21:27:35.496Z,6.13
2017-08-15T21:30:03.238Z,7.33
2017-08-15T21:32:30.964Z,5.53
2017-08-15T21:34:58.732Z,8.70
2017-08-15T21:37:26.395Z,6.23
2017-08-15T21:39:54.052Z,6.60
2017-08-15T21:42:21.860Z,7.30
2017-08-15T21:44:49.555Z,4.73
2017-08-15T21:47:17.220Z,5.80
2017-08-15T21:49:44.951Z,5.90
2017-08-15T21:52:12.614Z,6.07
2017-08-15T21:54:40.316Z,6.40
2017-08-15T21:57:08.148Z,4.80
2017-08-15T21:59:36.520Z,5.03
2017-08-15T22:02:10.476Z,10.87
2017-08-15T22:04:38.176Z,5.10
2017-08-15T22:07:06.679Z,6.50
2017-08-15T22:09:34.399Z,8.83
2017-08-15T22:12:02.125Z,15.77
2017-08-15T22:14:29.910Z,10.37
2017-08-15T22:16:57.568Z,12.50
2017-08-15T22:19:25.224Z,13.23
2017-08-15T22:21:52.937Z,5.20
2017-08-15T22:24:20.563Z,5.50
2017-08-15T22:26:49.094Z,4.93
2017-08-15T22:29:16.859Z,5.30
2017-08-15T22:31:45.335Z,7.00
2017-08-15T22:34:13.930Z,6.00
2017-08-15T22:36:41.625Z,5.43
2017-08-15T22:39:09.801Z,5.70
2017-08-15T22:41:37.463Z,7.13
2017-08-15T22:44:05.761Z,5.63
2017-08-15T22:46:33.471Z,6.60
2017-08-15T22:49:01.115Z,9.50
2017-08-15T22:51:28.792Z,6.47
2017-08-15T22:53:56.453Z,8.60
2017-08-15T22:56:24.142Z,4.90
2017-08-15T22:58:51.847Z,6.03
2017-08-15T23:01:19.503Z,5.60
2017-08-15T23:03:47.180Z,4.77
2017-08-15T23:06:14.940Z,5.13
2017-08-15T23:08:42.680Z,8.63
2017-08-15T23:11:10.331Z,7.10
2017-08-15T23:13:38.051Z,6.80
2017-08-15T23:16:05.670Z,9.93
2017-08-15T23:18:33.315Z,5.50
2017-08-15T23:21:00.982Z,7.60
2017-08-15T23:23:28.630Z,7.10
2017-08-15T23:25:56.385Z,6.07
2017-08-15T23:28:24.812Z,6.03
2017-08-15T23:30:52.495Z,6.87
2017-08-15T23:33:20.185Z,8.63
2017-08-15T23:35:47.818Z,7.13
2017-08-15T23:38:15.437Z,5.13
2017-08-15T23:40:43.074Z,6.80
2017-08-15T23:43:10.884Z,6.50
2017-08-15T23:45:38.528Z,5.37
2017-08-15T23:48:06.152Z,5.97
2017-08-15T23:50:33.861Z,5.37
2017-08-15T23:53:01.491Z,5.77
2017-08-15T23:55:29.151Z,5.20
2017-08-15T23:57:56.787Z,6.03
